sensor_id;sensor_type;location;lat;lon;timestamp;temperature;humidity
1538;DHT22;12022;52.266;10.522;2023-02-03T00:18:31;7.00;99.90
1538;DHT22;12022;52.266;10.522;2023-02-03T00:20:58;7.10;99.90
1538;DHT22;12022;52.266;10.522;2023-02-03T00:23:25;7.20;99.90
1538;DHT22;12022;52.266;10.522;2023-02-03T00:25:55;7.20;99.90
1538;DHT22;12022;52.266;10.522;2023-02-03T00:28:22;7.30;99.90
1538;DHT22;12022;52.266;10.522;2023-02-03T00:30:49;7.20;99.90
1538;DHT22;12022;52.266;10.522;2023-02-03T00:33:19;7.30;99.90
1538;DHT22;12022;52.266;10.522;2023-02-03T00:35:46;7.40;99.90
1538;DHT22;12022;52.266;10.522;2023-02-03T00:38:13;7.30;99.90
1538;DHT22;12022;52.266;10.522;2023-02-03T00:40:40;7.30;99.90
1538;DHT22;12022;52.266;10.522;2023-02-03T00:43:07;7.30;99.90
1538;DHT22;12022;52.266;10.522;2023-02-03T00:45:34;7.40;99.90
1538;DHT22;12022;52.266;10.522;2023-02-03T00:48:01;7.40;99.90
1538;DHT22;12022;52.266;10.522;2023-02-03T00:50:28;7.40;99.90
1538;DHT22;12022;52.266;10.522;2023-02-03T00:52:55;7.40;99.90
1538;DHT22;12022;52.266;10.522;2023-02-03T00:55:24;7.50;99.90
1538;DHT22;12022;52.266;10.522;2023-02-03T00:57:51;7.50;99.90
1538;DHT22;12022;52.266;10.522;2023-02-03T01:00:19;7.50;99.90
1538;DHT22;12022;52.266;10.522;2023-02-03T01:02:46;7.50;99.90
1538;DHT22;12022;52.266;10.522;2023-02-03T01:05:13;7.60;99.90
1538;DHT22;12022;52.266;10.522;2023-02-03T01:07:40;7.50;99.90
1538;DHT22;12022;52.266;10.522;2023-02-03T01:10:07;7.50;99.90
1538;DHT22;12022;52.266;10.522;2023-02-03T01:12:34;7.50;99.90
1538;DHT22;12022;52.266;10.522;2023-02-03T01:15:01;7.70;99.90
1538;DHT22;12022;52.266;10.522;2023-02-03T01:17:28;7.70;99.90
1538;DHT22;12022;52.266;10.522;2023-02-03T01:19:55;7.60;99.90
1538;DHT22;12022;52.266;10.522;2023-02-03T01:22:22;7.60;99.90
1538;DHT22;12022;52.266;10.522;2023-02-03T01:24:49;7.60;99.90
1538;DHT22;12022;52.266;10.522;2023-02-03T01:27:15;7.60;99.90
1538;DHT22;12022;52.266;10.522;2023-02-03T01:29:42;7.70;99.90
1538;DHT22;12022;52.266;10.522;2023-02-03T01:32:09;7.70;99.90
1538;DHT22;12022;52.266;10.522;2023-02-03T01:34:36;7.70;99.90
1538;DHT22;12022;52.266;10.522;2023-02-03T01:37:03;7.70;99.90
1538;DHT22;12022;52.266;10.522;2023-02-03T01:39:30;7.70;99.90
1538;DHT22;12022;52.266;10.522;2023-02-03T01:41:57;7.80;99.90
1538;DHT22;12022;52.266;10.522;2023-02-03T01:44:43;7.90;99.90
1538;DHT22;12022;52.266;10.522;2023-02-03T01:52:34;7.90;99.90
1538;DHT22;12022;52.266;10.522;2023-02-03T01:55:04;7.90;99.90
1538;DHT22;12022;52.266;10.522;2023-02-03T01:57:36;8.00;99.90
1538;DHT22;12022;52.266;10.522;2023-02-03T02:00:05;8.10;99.90
1538;DHT22;12022;52.266;10.522;2023-02-03T02:02:32;8.10;99.90
1538;DHT22;12022;52.266;10.522;2023-02-03T02:05:11;8.20;99.90
1538;DHT22;12022;52.266;10.522;2023-02-03T02:07:40;8.40;99.90
1538;DHT22;12022;52.266;10.522;2023-02-03T02:10:09;8.30;99.90
1538;DHT22;12022;52.266;10.522;2023-02-03T02:12:36;8.40;99.90
1538;DHT22;12022;52.266;10.522;2023-02-03T02:15:03;8.40;99.90
1538;DHT22;12022;52.266;10.522;2023-02-03T02:17:47;8.40;99.90
1538;DHT22;12022;52.266;10.522;2023-02-03T02:23:17;8.50;99.90
1538;DHT22;12022;52.266;10.522;2023-02-03T02:34:21;8.50;99.90
1538;DHT22;12022;52.266;10.522;2023-02-03T02:37:06;8.50;99.90
1538;DHT22;12022;52.266;10.522;2023-02-03T02:39:58;8.60;99.90
1538;DHT22;12022;52.266;10.522;2023-02-03T02:42:43;8.60;99.90
1538;DHT22;12022;52.266;10.522;2023-02-03T02:45:21;8.60;99.90
1538;DHT22;12022;52.266;10.522;2023-02-03T02:47:54;8.50;99.90
1538;DHT22;12022;52.266;10.522;2023-02-03T02:50:28;8.60;99.90
1538;DHT22;12022;52.266;10.522;2023-02-03T02:52:57;8.60;99.90
1538;DHT22;12022;52.266;10.522;2023-02-03T02:55:31;8.70;99.90
1538;DHT22;12022;52.266;10.522;2023-02-03T02:58:02;8.60;99.90
1538;DHT22;12022;52.266;10.522;2023-02-03T03:00:33;8.60;99.90
1538;DHT22;12022;52.266;10.522;2023-02-03T03:05:43;8.60;99.90
1538;DHT22;12022;52.266;10.522;2023-02-03T03:08:13;8.60;99.90
1538;DHT22;12022;52.266;10.522;2023-02-03T03:10:42;8.60;99.90
1538;DHT22;12022;52.266;10.522;2023-02-03T03:13:13;8.60;99.90
1538;DHT22;12022;52.266;10.522;2023-02-03T03:15:43;8.60;99.90
1538;DHT22;12022;52.266;10.522;2023-02-03T03:18:15;8.60;99.90
1538;DHT22;12022;52.266;10.522;2023-02-03T03:20:44;8.70;99.90
1538;DHT22;12022;52.266;10.522;2023-02-03T03:23:27;8.60;99.90
1538;DHT22;12022;52.266;10.522;2023-02-03T03:26:27;8.60;99.90
1538;DHT22;12022;52.266;10.522;2023-02-03T03:29:36;8.60;99.90
1538;DHT22;12022;52.266;10.522;2023-02-03T03:32:01;8.70;99.90
1538;DHT22;12022;52.266;10.522;2023-02-03T03:34:29;8.60;99.90
1538;DHT22;12022;52.266;10.522;2023-02-03T03:42:24;8.60;99.90
1538;DHT22;12022;52.266;10.522;2023-02-03T03:45:13;8.70;99.90
1538;DHT22;12022;52.266;10.522;2023-02-03T03:47:53;8.60;99.90
1538;DHT22;12022;52.266;10.522;2023-02-03T03:50:27;8.70;99.90
1538;DHT22;12022;52.266;10.522;2023-02-03T03:52:57;8.70;99.90
1538;DHT22;12022;52.266;10.522;2023-02-03T03:55:26;8.60;99.90
1538;DHT22;12022;52.266;10.522;2023-02-03T03:58:27;8.70;99.90
1538;DHT22;12022;52.266;10.522;2023-02-03T04:00:55;8.70;99.90
1538;DHT22;12022;52.266;10.522;2023-02-03T04:03:47;8.70;99.90
1538;DHT22;12022;52.266;10.522;2023-02-03T04:06:12;8.70;99.90
1538;DHT22;12022;52.266;10.522;2023-02-03T04:08:39;8.60;99.90
1538;DHT22;12022;52.266;10.522;2023-02-03T04:11:06;8.70;99.90
1538;DHT22;12022;52.266;10.522;2023-02-03T04:13:33;8.70;99.90
1538;DHT22;12022;52.266;10.522;2023-02-03T04:16:00;8.70;99.90
1538;DHT22;12022;52.266;10.522;2023-02-03T04:18:27;8.70;99.90
1538;DHT22;12022;52.266;10.522;2023-02-03T04:20:54;8.80;99.90
1538;DHT22;12022;52.266;10.522;2023-02-03T04:23:21;8.90;99.90
1538;DHT22;12022;52.266;10.522;2023-02-03T04:25:47;8.80;99.90
1538;DHT22;12022;52.266;10.522;2023-02-03T04:28:14;8.80;99.90
1538;DHT22;12022;52.266;10.522;2023-02-03T04:30:41;8.80;99.90
1538;DHT22;12022;52.266;10.522;2023-02-03T04:33:08;8.80;99.90
1538;DHT22;12022;52.266;10.522;2023-02-03T04:35:35;8.90;99.90
1538;DHT22;12022;52.266;10.522;2023-02-03T04:38:02;8.90;99.90
1538;DHT22;12022;52.266;10.522;2023-02-03T04:40:29;8.90;99.90
1538;DHT22;12022;52.266;10.522;2023-02-03T04:42:56;8.80;99.90
1538;DHT22;12022;52.266;10.522;2023-02-03T04:45:22;8.80;99.90
1538;DHT22;12022;52.266;10.522;2023-02-03T04:47:52;8.80;99.90
1538;DHT22;12022;52.266;10.522;2023-02-03T04:50:20;8.80;99.90
1538;DHT22;12022;52.266;10.522;2023-02-03T04:52:47;8.80;99.90
1538;DHT22;12022;52.266;10.522;2023-02-03T04:55:14;9.00;99.90
1538;DHT22;12022;52.266;10.522;2023-02-03T04:57:40;9.00;99.90
1538;DHT22;12022;52.266;10.522;2023-02-03T05:00:08;9.00;99.90
1538;DHT22;12022;52.266;10.522;2023-02-03T05:02:36;9.00;99.90
1538;DHT22;12022;52.266;10.522;2023-02-03T05:05:03;9.10;99.90
1538;DHT22;12022;52.266;10.522;2023-02-03T05:07:30;9.00;99.90
1538;DHT22;12022;52.266;10.522;2023-02-03T05:09:57;9.10;99.90
1538;DHT22;12022;52.266;10.522;2023-02-03T05:12:24;9.10;99.90
1538;DHT22;12022;52.266;10.522;2023-02-03T05:14:50;9.00;99.90
1538;DHT22;12022;52.266;10.522;2023-02-03T05:17:17;9.10;99.90
1538;DHT22;12022;52.266;10.522;2023-02-03T05:19:44;9.20;99.90
1538;DHT22;12022;52.266;10.522;2023-02-03T05:22:11;9.20;99.90
1538;DHT22;12022;52.266;10.522;2023-02-03T05:24:38;9.10;99.90
1538;DHT22;12022;52.266;10.522;2023-02-03T05:27:05;9.10;99.90
1538;DHT22;12022;52.266;10.522;2023-02-03T05:29:31;9.10;99.90
1538;DHT22;12022;52.266;10.522;2023-02-03T05:31:58;9.10;99.90
1538;DHT22;12022;52.266;10.522;2023-02-03T05:34:25;9.10;99.90
1538;DHT22;12022;52.266;10.522;2023-02-03T05:36:52;9.10;99.90
1538;DHT22;12022;52.266;10.522;2023-02-03T05:39:19;9.10;99.90
1538;DHT22;12022;52.266;10.522;2023-02-03T05:41:46;9.20;99.90
1538;DHT22;12022;52.266;10.522;2023-02-03T05:44:20;9.20;99.90
1538;DHT22;12022;52.266;10.522;2023-02-03T05:46:48;9.20;99.90
1538;DHT22;12022;52.266;10.522;2023-02-03T05:49:15;9.20;99.90
1538;DHT22;12022;52.266;10.522;2023-02-03T05:51:42;9.20;99.90
1538;DHT22;12022;52.266;10.522;2023-02-03T05:54:09;9.20;99.90
1538;DHT22;12022;52.266;10.522;2023-02-03T05:56:36;9.30;99.90
1538;DHT22;12022;52.266;10.522;2023-02-03T05:59:04;9.20;99.90
1538;DHT22;12022;52.266;10.522;2023-02-03T06:01:32;9.20;99.90
1538;DHT22;12022;52.266;10.522;2023-02-03T06:03:59;9.20;99.90
1538;DHT22;12022;52.266;10.522;2023-02-03T06:06:27;9.20;99.90
1538;DHT22;12022;52.266;10.522;2023-02-03T06:09:02;9.00;99.90
1538;DHT22;12022;52.266;10.522;2023-02-03T06:11:37;9.20;99.90
1538;DHT22;12022;52.266;10.522;2023-02-03T06:14:08;9.30;99.90
1538;DHT22;12022;52.266;10.522;2023-02-03T06:16:35;9.40;99.90
1538;DHT22;12022;52.266;10.522;2023-02-03T06:19:02;9.30;99.90
1538;DHT22;12022;52.266;10.522;2023-02-03T06:21:29;9.40;99.90
1538;DHT22;12022;52.266;10.522;2023-02-03T06:23:56;9.30;99.90
1538;DHT22;12022;52.266;10.522;2023-02-03T06:26:23;9.20;99.90
1538;DHT22;12022;52.266;10.522;2023-02-03T06:28:50;9.30;99.90
1538;DHT22;12022;52.266;10.522;2023-02-03T06:31:17;9.40;99.90
1538;DHT22;12022;52.266;10.522;2023-02-03T06:33:44;9.40;99.90
1538;DHT22;12022;52.266;10.522;2023-02-03T06:36:11;9.30;99.90
1538;DHT22;12022;52.266;10.522;2023-02-03T06:38:38;9.40;99.90
1538;DHT22;12022;52.266;10.522;2023-02-03T06:41:05;9.40;99.90
1538;DHT22;12022;52.266;10.522;2023-02-03T06:43:32;9.40;99.90
1538;DHT22;12022;52.266;10.522;2023-02-03T06:46:01;9.40;99.90
1538;DHT22;12022;52.266;10.522;2023-02-03T06:48:28;9.40;99.90
1538;DHT22;12022;52.266;10.522;2023-02-03T06:50:55;9.40;99.90
1538;DHT22;12022;52.266;10.522;2023-02-03T06:53:22;9.40;99.90
1538;DHT22;12022;52.266;10.522;2023-02-03T06:55:49;9.40;99.90
1538;DHT22;12022;52.266;10.522;2023-02-03T06:58:15;9.40;99.90
1538;DHT22;12022;52.266;10.522;2023-02-03T07:00:42;9.40;99.90
1538;DHT22;12022;52.266;10.522;2023-02-03T07:03:09;9.40;99.90
1538;DHT22;12022;52.266;10.522;2023-02-03T07:05:36;9.30;99.90
1538;DHT22;12022;52.266;10.522;2023-02-03T07:08:03;9.40;99.90
1538;DHT22;12022;52.266;10.522;2023-02-03T07:10:30;9.40;99.90
1538;DHT22;12022;52.266;10.522;2023-02-03T07:13:02;9.40;99.90
1538;DHT22;12022;52.266;10.522;2023-02-03T07:15:29;9.40;99.90
1538;DHT22;12022;52.266;10.522;2023-02-03T07:17:56;9.40;99.90
1538;DHT22;12022;52.266;10.522;2023-02-03T07:20:24;9.40;99.90
1538;DHT22;12022;52.266;10.522;2023-02-03T07:22:56;9.40;99.90
1538;DHT22;12022;52.266;10.522;2023-02-03T07:25:24;9.50;99.90
1538;DHT22;12022;52.266;10.522;2023-02-03T07:27:52;9.50;99.90
1538;DHT22;12022;52.266;10.522;2023-02-03T07:30:19;9.40;99.90
1538;DHT22;12022;52.266;10.522;2023-02-03T07:32:49;9.40;99.90
1538;DHT22;12022;52.266;10.522;2023-02-03T07:35:17;9.40;99.90
1538;DHT22;12022;52.266;10.522;2023-02-03T07:37:44;9.40;99.90
1538;DHT22;12022;52.266;10.522;2023-02-03T07:40:26;9.40;99.90
1538;DHT22;12022;52.266;10.522;2023-02-03T07:42:53;9.50;99.90
1538;DHT22;12022;52.266;10.522;2023-02-03T07:45:20;9.40;99.90
1538;DHT22;12022;52.266;10.522;2023-02-03T07:47:50;9.50;99.90
1538;DHT22;12022;52.266;10.522;2023-02-03T07:50:17;9.50;99.90
1538;DHT22;12022;52.266;10.522;2023-02-03T07:52:44;9.50;99.90
1538;DHT22;12022;52.266;10.522;2023-02-03T07:55:11;9.50;99.90
1538;DHT22;12022;52.266;10.522;2023-02-03T07:57:38;9.50;99.90
1538;DHT22;12022;52.266;10.522;2023-02-03T08:00:11;9.50;99.90
1538;DHT22;12022;52.266;10.522;2023-02-03T08:02:43;9.50;99.90
1538;DHT22;12022;52.266;10.522;2023-02-03T08:05:11;9.50;99.90
1538;DHT22;12022;52.266;10.522;2023-02-03T08:07:39;9.50;99.90
1538;DHT22;12022;52.266;10.522;2023-02-03T08:10:07;9.50;99.90
1538;DHT22;12022;52.266;10.522;2023-02-03T08:12:34;9.50;99.90
1538;DHT22;12022;52.266;10.522;2023-02-03T08:15:03;9.60;99.90
1538;DHT22;12022;52.266;10.522;2023-02-03T08:17:30;9.60;99.90
1538;DHT22;12022;52.266;10.522;2023-02-03T08:19:59;9.50;99.90
1538;DHT22;12022;52.266;10.522;2023-02-03T08:22:26;9.60;99.90
1538;DHT22;12022;52.266;10.522;2023-02-03T08:24:53;9.70;99.90
1538;DHT22;12022;52.266;10.522;2023-02-03T08:27:21;9.70;99.90
1538;DHT22;12022;52.266;10.522;2023-02-03T08:29:48;9.60;99.90
1538;DHT22;12022;52.266;10.522;2023-02-03T08:32:20;9.60;99.90
1538;DHT22;12022;52.266;10.522;2023-02-03T08:34:49;9.60;99.90
1538;DHT22;12022;52.266;10.522;2023-02-03T08:37:19;9.60;99.90
1538;DHT22;12022;52.266;10.522;2023-02-03T08:39:46;9.60;99.90
1538;DHT22;12022;52.266;10.522;2023-02-03T08:42:13;9.60;99.90
1538;DHT22;12022;52.266;10.522;2023-02-03T08:44:40;9.60;99.90
1538;DHT22;12022;52.266;10.522;2023-02-03T08:47:10;9.60;99.90
1538;DHT22;12022;52.266;10.522;2023-02-03T08:49:37;9.60;99.90
1538;DHT22;12022;52.266;10.522;2023-02-03T08:52:10;9.60;99.90
1538;DHT22;12022;52.266;10.522;2023-02-03T08:54:37;9.70;99.90
1538;DHT22;12022;52.266;10.522;2023-02-03T08:57:05;9.70;99.90
1538;DHT22;12022;52.266;10.522;2023-02-03T08:59:33;9.70;99.90
1538;DHT22;12022;52.266;10.522;2023-02-03T09:02:07;9.80;99.90
1538;DHT22;12022;52.266;10.522;2023-02-03T09:04:35;9.80;99.90
1538;DHT22;12022;52.266;10.522;2023-02-03T09:07:02;9.80;99.90
1538;DHT22;12022;52.266;10.522;2023-02-03T09:09:30;9.80;99.90
1538;DHT22;12022;52.266;10.522;2023-02-03T09:11:57;9.80;99.90
1538;DHT22;12022;52.266;10.522;2023-02-03T09:14:32;9.80;99.90
1538;DHT22;12022;52.266;10.522;2023-02-03T09:17:00;9.90;99.90
1538;DHT22;12022;52.266;10.522;2023-02-03T09:19:29;9.90;99.90
1538;DHT22;12022;52.266;10.522;2023-02-03T09:21:56;9.90;99.90
1538;DHT22;12022;52.266;10.522;2023-02-03T09:24:24;10.00;99.90
1538;DHT22;12022;52.266;10.522;2023-02-03T09:26:53;10.00;99.90
1538;DHT22;12022;52.266;10.522;2023-02-03T09:29:21;10.00;99.90
1538;DHT22;12022;52.266;10.522;2023-02-03T09:31:50;10.00;99.90
1538;DHT22;12022;52.266;10.522;2023-02-03T09:34:19;9.90;99.90
1538;DHT22;12022;52.266;10.522;2023-02-03T09:36:47;9.90;99.90
1538;DHT22;12022;52.266;10.522;2023-02-03T09:39:14;9.90;99.90
1538;DHT22;12022;52.266;10.522;2023-02-03T09:42:03;9.90;99.90
1538;DHT22;12022;52.266;10.522;2023-02-03T09:44:50;9.90;99.90
1538;DHT22;12022;52.266;10.522;2023-02-03T09:47:26;9.90;99.90
1538;DHT22;12022;52.266;10.522;2023-02-03T09:50:21;9.90;99.90
1538;DHT22;12022;52.266;10.522;2023-02-03T09:52:49;9.90;99.90
1538;DHT22;12022;52.266;10.522;2023-02-03T09:55:41;10.00;99.90
1538;DHT22;12022;52.266;10.522;2023-02-03T09:58:17;10.00;99.90
1538;DHT22;12022;52.266;10.522;2023-02-03T10:01:01;10.10;99.90
1538;DHT22;12022;52.266;10.522;2023-02-03T10:19:21;10.10;99.90
1538;DHT22;12022;52.266;10.522;2023-02-03T10:21:53;10.10;99.90
1538;DHT22;12022;52.266;10.522;2023-02-03T10:24:27;10.10;99.90
1538;DHT22;12022;52.266;10.522;2023-02-03T10:26:58;10.00;99.90
1538;DHT22;12022;52.266;10.522;2023-02-03T10:29:40;10.20;99.90
1538;DHT22;12022;52.266;10.522;2023-02-03T10:32:12;10.10;99.90
1538;DHT22;12022;52.266;10.522;2023-02-03T10:34:42;10.10;99.90
1538;DHT22;12022;52.266;10.522;2023-02-03T10:37:36;10.10;99.90
1538;DHT22;12022;52.266;10.522;2023-02-03T10:40:04;10.20;99.90
1538;DHT22;12022;52.266;10.522;2023-02-03T10:42:33;10.20;99.90
1538;DHT22;12022;52.266;10.522;2023-02-03T10:45:19;10.30;99.90
1538;DHT22;12022;52.266;10.522;2023-02-03T10:47:50;10.20;99.90
1538;DHT22;12022;52.266;10.522;2023-02-03T10:50:23;10.30;99.90
1538;DHT22;12022;52.266;10.522;2023-02-03T10:53:32;10.10;99.90
1538;DHT22;12022;52.266;10.522;2023-02-03T10:56:08;10.10;99.90
1538;DHT22;12022;52.266;10.522;2023-02-03T10:58:53;10.00;99.90
1538;DHT22;12022;52.266;10.522;2023-02-03T11:01:39;9.90;99.90
1538;DHT22;12022;52.266;10.522;2023-02-03T11:06:57;9.80;99.90
1538;DHT22;12022;52.266;10.522;2023-02-03T11:09:32;9.70;99.90
1538;DHT22;12022;52.266;10.522;2023-02-03T11:12:19;9.70;99.90
1538;DHT22;12022;52.266;10.522;2023-02-03T11:14:48;9.70;99.90
1538;DHT22;12022;52.266;10.522;2023-02-03T11:17:23;9.70;99.90
1538;DHT22;12022;52.266;10.522;2023-02-03T11:19:56;9.70;99.90
1538;DHT22;12022;52.266;10.522;2023-02-03T11:22:29;9.70;99.90
1538;DHT22;12022;52.266;10.522;2023-02-03T11:24:57;9.70;99.90
1538;DHT22;12022;52.266;10.522;2023-02-03T11:27:28;9.60;99.90
1538;DHT22;12022;52.266;10.522;2023-02-03T11:32:46;9.60;99.90
1538;DHT22;12022;52.266;10.522;2023-02-03T11:35:28;9.70;99.90
1538;DHT22;12022;52.266;10.522;2023-02-03T11:37:57;9.70;99.90
1538;DHT22;12022;52.266;10.522;2023-02-03T11:40:32;9.80;99.90
1538;DHT22;12022;52.266;10.522;2023-02-03T11:43:15;9.80;99.90
1538;DHT22;12022;52.266;10.522;2023-02-03T11:45:49;10.00;99.90
1538;DHT22;12022;52.266;10.522;2023-02-03T11:53:40;10.10;99.90
1538;DHT22;12022;52.266;10.522;2023-02-03T12:02:22;10.20;99.90
1538;DHT22;12022;52.266;10.522;2023-02-03T12:05:16;10.30;99.90
1538;DHT22;12022;52.266;10.522;2023-02-03T12:08:07;10.30;99.90
1538;DHT22;12022;52.266;10.522;2023-02-03T12:16:26;10.50;99.90
1538;DHT22;12022;52.266;10.522;2023-02-03T12:19:17;10.60;99.90
1538;DHT22;12022;52.266;10.522;2023-02-03T12:21:46;10.50;99.90
1538;DHT22;12022;52.266;10.522;2023-02-03T12:24:31;10.50;99.90
1538;DHT22;12022;52.266;10.522;2023-02-03T12:27:21;10.50;99.90
1538;DHT22;12022;52.266;10.522;2023-02-03T12:30:15;10.40;99.90
1538;DHT22;12022;52.266;10.522;2023-02-03T12:32:52;10.50;99.90
1538;DHT22;12022;52.266;10.522;2023-02-03T12:35:33;10.60;99.90
1538;DHT22;12022;52.266;10.522;2023-02-03T12:41:05;10.60;99.90
1538;DHT22;12022;52.266;10.522;2023-02-03T12:43:40;10.60;99.90
1538;DHT22;12022;52.266;10.522;2023-02-03T12:46:30;10.60;99.90
1538;DHT22;12022;52.266;10.522;2023-02-03T13:00:35;10.90;99.90
1538;DHT22;12022;52.266;10.522;2023-02-03T13:03:28;10.90;99.90
1538;DHT22;12022;52.266;10.522;2023-02-03T13:08:49;10.80;99.90
1538;DHT22;12022;52.266;10.522;2023-02-03T13:11:25;10.80;99.90
1538;DHT22;12022;52.266;10.522;2023-02-03T13:14:00;10.80;99.90
1538;DHT22;12022;52.266;10.522;2023-02-03T13:16:36;10.80;99.90
1538;DHT22;12022;52.266;10.522;2023-02-03T13:19:11;10.80;99.90
1538;DHT22;12022;52.266;10.522;2023-02-03T13:21:39;10.70;99.90
1538;DHT22;12022;52.266;10.522;2023-02-03T13:24:09;10.70;99.90
1538;DHT22;12022;52.266;10.522;2023-02-03T13:26:50;10.70;99.90
1538;DHT22;12022;52.266;10.522;2023-02-03T13:29:31;10.60;99.90
1538;DHT22;12022;52.266;10.522;2023-02-03T13:40:14;10.60;99.90
1538;DHT22;12022;52.266;10.522;2023-02-03T16:23:52;9.20;99.90
1538;DHT22;12022;52.266;10.522;2023-02-03T19:49:09;7.40;99.90
1538;DHT22;12022;52.266;10.522;2023-02-03T19:51:58;7.40;99.90
1538;DHT22;12022;52.266;10.522;2023-02-03T19:54:34;7.40;99.90
1538;DHT22;12022;52.266;10.522;2023-02-03T19:57:45;7.40;99.90
1538;DHT22;12022;52.266;10.522;2023-02-03T20:03:00;7.40;99.90
1538;DHT22;12022;52.266;10.522;2023-02-03T20:05:34;7.30;99.90
1538;DHT22;12022;52.266;10.522;2023-02-03T20:31:30;7.40;99.90
1538;DHT22;12022;52.266;10.522;2023-02-03T20:34:07;7.40;99.90
1538;DHT22;12022;52.266;10.522;2023-02-03T20:36:36;7.30;99.90
1538;DHT22;12022;52.266;10.522;2023-02-03T20:39:17;7.50;99.90
1538;DHT22;12022;52.266;10.522;2023-02-03T20:41:53;7.40;99.90
1538;DHT22;12022;52.266;10.522;2023-02-03T20:44:49;7.40;99.90
1538;DHT22;12022;52.266;10.522;2023-02-03T20:47:24;7.50;99.90
1538;DHT22;12022;52.266;10.522;2023-02-03T20:49:58;7.50;99.90
1538;DHT22;12022;52.266;10.522;2023-02-03T21:35:37;7.50;99.90
1538;DHT22;12022;52.266;10.522;2023-02-03T21:38:41;7.40;99.90
1538;DHT22;12022;52.266;10.522;2023-02-03T21:53:55;7.40;99.90
1538;DHT22;12022;52.266;10.522;2023-02-03T21:59:30;7.40;99.90
